Time;durP1;ratioP1;P1;durP2;ratioP2;P2;SDS_P1;SDS_P2;PMS_P1;PMS_P2;Temp;Humidity;BMP_temperature;BMP_pressure;BME280_temperature;BME280_humidity;BME280_pressure;Samples;Min_cycle;Max_cycle;Signal;HPM_P1;HPM_P2
2023/10/04 00:01:16;;;;;;;15.10;10.63;;;17.00;99.90;;;;;;5033685;28;20226;-79
2023/10/04 00:03:43;;;;;;;14.80;10.57;;;17.10;99.90;;;;;;5033415;28;20164;-80
2023/10/04 00:06:09;;;;;;;13.13;8.90;;;17.00;99.90;;;;;;5033813;28;20175;-78
2023/10/04 00:08:35;;;;;;;11.83;8.27;;;17.10;99.90;;;;;;5033827;28;20202;-80
2023/10/04 00:11:03;;;;;;;10.53;8.37;;;17.10;99.90;;;;;;5033730;28;20663;-80
2023/10/04 00:13:29;;;;;;;11.07;7.97;;;17.20;99.90;;;;;;5033942;28;20180;-79
2023/10/04 00:15:54;;;;;;;11.10;8.40;;;17.20;99.90;;;;;;5033886;28;20173;-79
2023/10/04 00:18:20;;;;;;;4.47;3.30;;;17.20;99.90;;;;;;5036495;28;20207;-79
2023/10/04 00:20:46;;;;;;;3.90;2.20;;;17.50;99.90;;;;;;5033484;28;20306;-80
2023/10/04 00:23:13;;;;;;;2.03;1.63;;;17.90;99.90;;;;;;5036634;28;20694;-79
2023/10/04 00:25:39;;;;;;;1.47;1.37;;;18.30;99.90;;;;;;5037894;28;20286;-80
2023/10/04 00:28:05;;;;;;;1.30;1.30;;;18.80;99.90;;;;;;5033654;28;20659;-78
2023/10/04 00:30:32;;;;;;;0.83;0.83;;;19.00;99.90;;;;;;5034164;28;20181;-80
2023/10/04 00:33:02;;;;;;;1.90;1.20;;;19.10;99.90;;;;;;5032328;28;20211;-79
2023/10/04 00:35:28;;;;;;;1.00;1.00;;;19.30;99.90;;;;;;5033468;28;20165;-81
2023/10/04 00:37:59;;;;;;;1.13;1.03;;;19.80;99.90;;;;;;5031984;28;20188;-79
2023/10/04 00:40:30;;;;;;;0.80;0.80;;;19.90;99.90;;;;;;5050823;28;20632;-79
2023/10/04 00:43:05;;;;;;;1.10;1.00;;;20.20;99.90;;;;;;5053358;28;20194;-78
2023/10/04 00:45:34;;;;;;;2.07;1.03;;;20.10;99.90;;;;;;5053488;28;20156;-80
2023/10/04 00:48:06;;;;;;;1.20;1.10;;;20.30;99.90;;;;;;5052880;28;20187;-80
2023/10/04 00:50:32;;;;;;;1.07;1.07;;;20.30;99.90;;;;;;5034495;28;20190;-80
2023/10/04 00:53:01;;;;;;;1.33;0.80;;;20.20;99.90;;;;;;5052913;28;20226;-79
2023/10/04 00:55:27;;;;;;;0.87;0.87;;;20.10;99.90;;;;;;5053873;28;20202;-81
2023/10/04 00:57:54;;;;;;;2.67;1.10;;;20.20;99.90;;;;;;5055204;28;20168;-79
2023/10/04 01:00:21;;;;;;;1.70;1.23;;;20.20;99.90;;;;;;5056496;28;20211;-82
2023/10/04 01:02:48;;;;;;;1.30;1.00;;;20.20;99.90;;;;;;5059745;28;20555;-80
2023/10/04 01:05:15;;;;;;;1.60;1.20;;;20.10;99.90;;;;;;5053596;28;20168;-80
2023/10/04 01:07:42;;;;;;;1.17;1.17;;;20.20;99.90;;;;;;5060999;28;20195;-81
2023/10/04 01:10:16;;;;;;;2.30;1.33;;;20.20;99.90;;;;;;5071702;28;20182;-81
2023/10/04 01:12:45;;;;;;;2.03;1.13;;;20.20;99.90;;;;;;5054119;28;20177;-79
2023/10/04 01:15:30;;;;;;;1.23;1.13;;;20.20;99.90;;;;;;5052388;28;20180;-79
2023/10/04 01:18:00;;;;;;;1.47;1.37;;;20.20;99.90;;;;;;5052610;28;20160;-80
2023/10/04 01:20:30;;;;;;;2.47;1.33;;;20.10;99.90;;;;;;5055556;28;20184;-82
2023/10/04 01:23:01;;;;;;;1.67;1.50;;;20.10;99.90;;;;;;5061100;28;20164;-80
2023/10/04 01:25:29;;;;;;;2.07;1.60;;;20.10;99.90;;;;;;5056126;28;20179;-80
2023/10/04 01:27:55;;;;;;;4.33;1.43;;;20.10;99.60;;;;;;5070215;28;20192;-79
2023/10/04 01:30:21;;;;;;;3.63;1.60;;;20.20;99.40;;;;;;5053477;28;20203;-79
2023/10/04 01:32:50;;;;;;;4.83;1.97;;;20.20;99.60;;;;;;5052946;28;20172;-80
2023/10/04 01:35:19;;;;;;;2.10;1.60;;;20.10;99.40;;;;;;5053159;28;20171;-80
2023/10/04 01:37:45;;;;;;;1.57;1.47;;;20.10;99.20;;;;;;5069662;28;20172;-79
2023/10/04 01:40:14;;;;;;;2.20;1.60;;;20.10;98.90;;;;;;5054552;28;20222;-79
2023/10/04 01:42:40;;;;;;;1.93;1.80;;;20.10;98.80;;;;;;5054880;28;20644;-81
2023/10/04 01:45:11;;;;;;;1.70;1.60;;;20.10;98.80;;;;;;5057715;28;20179;-79
2023/10/04 01:47:38;;;;;;;2.33;1.63;;;20.00;98.80;;;;;;5052916;28;20693;-81
2023/10/04 01:50:06;;;;;;;5.73;1.87;;;20.00;98.80;;;;;;5052832;28;20172;-79
2023/10/04 01:52:32;;;;;;;2.93;1.80;;;19.90;98.70;;;;;;5052924;28;20216;-78
2023/10/04 01:54:58;;;;;;;2.23;2.03;;;19.90;98.80;;;;;;5053240;28;20226;-78
2023/10/04 01:57:24;;;;;;;1.70;1.60;;;19.90;98.90;;;;;;5052660;28;20529;-77
2023/10/04 01:59:50;;;;;;;1.87;1.77;;;19.80;98.90;;;;;;5051853;28;20687;-78
2023/10/04 02:02:17;;;;;;;1.80;1.70;;;19.70;98.90;;;;;;5053648;28;20176;-81
2023/10/04 02:04:46;;;;;;;3.07;1.80;;;19.70;98.90;;;;;;5055823;28;20651;-79
2023/10/04 02:07:12;;;;;;;2.73;1.60;;;19.60;99.10;;;;;;5055722;28;20168;-79
2023/10/04 02:09:38;;;;;;;1.80;1.67;;;19.50;99.20;;;;;;5056218;28;20658;-80
2023/10/04 02:12:04;;;;;;;1.97;1.80;;;20.50;99.80;;;;;;5055880;28;20616;-80
2023/10/04 02:14:33;;;;;;;1.83;1.70;;;19.40;99.60;;;;;;5056500;28;20247;-80
2023/10/04 02:17:00;;;;;;;1.80;1.70;;;19.30;99.70;;;;;;5055821;28;20168;-80
2023/10/04 02:19:26;;;;;;;5.23;1.50;;;19.70;99.90;;;;;;5055823;28;20211;-80
2023/10/04 02:21:52;;;;;;;2.00;1.80;;;19.40;99.90;;;;;;5055718;28;20303;-81
2023/10/04 02:24:18;;;;;;;1.53;1.43;;;19.10;99.90;;;;;;5055599;28;20182;-79
2023/10/04 02:26:43;;;;;;;1.60;1.50;;;19.00;99.70;;;;;;5056101;28;20180;-78
2023/10/04 02:29:09;;;;;;;1.87;1.70;;;19.00;99.80;;;;;;5037723;28;20202;-82
2023/10/04 02:31:36;;;;;;;2.00;1.73;;;18.90;99.90;;;;;;5061749;28;20172;-80
2023/10/04 02:34:05;;;;;;;2.40;1.40;;;18.80;99.90;;;;;;5063520;28;20181;-79
2023/10/04 02:36:30;;;;;;;1.43;1.37;;;18.80;99.90;;;;;;5055787;28;20175;-80
2023/10/04 02:38:57;;;;;;;1.60;1.50;;;18.70;99.90;;;;;;5055701;28;20273;-82
2023/10/04 02:41:26;;;;;;;2.30;2.10;;;18.70;99.90;;;;;;5055542;28;20595;-79
2023/10/04 02:43:54;;;;;;;1.83;1.60;;;18.60;99.90;;;;;;5037371;28;20180;-81
2023/10/04 02:46:20;;;;;;;1.53;1.43;;;18.60;99.90;;;;;;5056046;28;20168;-80
2023/10/04 02:48:48;;;;;;;1.60;1.50;;;18.60;99.90;;;;;;5057804;28;20176;-81
2023/10/04 02:51:14;;;;;;;3.70;1.60;;;19.00;99.90;;;;;;5075199;28;20184;-79
2023/10/04 02:53:41;;;;;;;1.70;1.60;;;18.60;99.90;;;;;;5063162;28;20187;-81
2023/10/04 02:56:07;;;;;;;1.43;1.33;;;18.60;99.90;;;;;;5040740;28;20176;-79
2023/10/04 02:58:35;;;;;;;1.63;1.53;;;18.50;99.90;;;;;;5056385;28;20199;-80
2023/10/04 03:01:00;;;;;;;1.60;1.50;;;18.40;99.90;;;;;;5063990;28;20172;-79
2023/10/04 03:03:26;;;;;;;1.47;1.37;;;18.50;99.90;;;;;;5037703;28;20186;-79
2023/10/04 03:05:54;;;;;;;2.00;1.47;;;18.60;99.90;;;;;;5067523;28;20194;-82
2023/10/04 03:08:20;;;;;;;3.07;1.53;;;18.40;99.90;;;;;;5038033;28;20572;-79
2023/10/04 03:10:50;;;;;;;1.90;1.80;;;18.40;99.90;;;;;;5054951;28;20221;-81
2023/10/04 03:13:22;;;;;;;1.70;1.60;;;18.30;99.90;;;;;;5036171;28;20199;-79
2023/10/04 03:15:50;;;;;;;2.07;1.80;;;18.30;99.90;;;;;;5036400;28;20175;-79
2023/10/04 03:18:20;;;;;;;1.90;1.80;;;18.30;99.90;;;;;;5054575;28;20194;-80
2023/10/04 03:23:29;;;;;;;1.87;1.77;;;18.30;99.10;;;;;;5054767;28;20267;-79
2023/10/04 03:25:57;;;;;;;1.57;1.43;;;18.30;99.10;;;;;;5054554;28;20226;-79
2023/10/04 03:28:25;;;;;;;1.90;1.80;;;18.40;98.50;;;;;;5054522;28;20168;-79
2023/10/04 03:30:52;;;;;;;2.03;1.83;;;18.30;98.70;;;;;;5055029;28;20176;-80
2023/10/04 03:33:18;;;;;;;1.60;1.50;;;18.30;98.60;;;;;;5054798;28;20236;-80
2023/10/04 03:35:44;;;;;;;1.97;1.80;;;18.30;98.50;;;;;;5054392;28;20569;-79
2023/10/04 03:38:11;;;;;;;3.30;1.50;;;18.30;98.60;;;;;;5054726;28;20176;-79
2023/10/04 03:40:38;;;;;;;1.70;1.60;;;18.20;98.50;;;;;;5054101;28;20203;-80
2023/10/04 03:43:08;;;;;;;1.80;1.70;;;18.30;98.20;;;;;;5061440;28;20186;-79
2023/10/04 03:45:40;;;;;;;2.00;1.70;;;17.50;98.00;;;;;;5058587;28;20199;-80
2023/10/04 03:48:10;;;;;;;1.77;1.60;;;18.20;97.40;;;;;;5037248;28;20171;-80
2023/10/04 03:50:38;;;;;;;1.43;1.33;;;18.40;97.20;;;;;;5055411;28;20237;-80
2023/10/04 03:53:04;;;;;;;3.27;1.70;;;18.30;97.10;;;;;;5055296;28;20221;-80
2023/10/04 03:55:29;;;;;;;1.43;1.40;;;18.30;97.40;;;;;;5054153;28;20725;-78
2023/10/04 03:57:55;;;;;;;1.60;1.50;;;18.40;97.70;;;;;;5053844;28;20191;-79
2023/10/04 04:00:23;;;;;;;1.87;1.63;;;18.40;98.10;;;;;;5053740;28;20565;-80
2023/10/04 04:02:50;;;;;;;1.63;1.53;;;18.30;97.80;;;;;;5053466;28;20164;-80
2023/10/04 04:05:16;;;;;;;1.47;1.40;;;18.30;97.40;;;;;;5036044;28;20204;-79
2023/10/04 04:07:43;;;;;;;2.10;1.50;;;18.30;98.20;;;;;;5054122;28;20172;-80
2023/10/04 04:10:12;;;;;;;1.53;1.47;;;18.30;97.80;;;;;;5064369;28;20167;-81
2023/10/04 04:12:40;;;;;;;1.53;1.40;;;18.30;97.10;;;;;;5054009;28;20176;-80
2023/10/04 04:15:10;;;;;;;2.17;1.93;;;18.30;97.60;;;;;;5053453;28;20195;-80
2023/10/04 04:17:37;;;;;;;1.90;1.60;;;18.20;97.40;;;;;;5053716;28;20624;-79
2023/10/04 04:20:17;;;;;;;1.80;1.70;;;18.20;97.10;;;;;;5053181;28;20272;-80
2023/10/04 04:22:50;;;;;;;1.87;1.67;;;18.20;96.70;;;;;;5053509;28;20214;-80
2023/10/04 04:25:19;;;;;;;1.57;1.47;;;18.20;96.80;;;;;;5034207;28;20534;-81
2023/10/04 04:27:46;;;;;;;1.73;1.63;;;18.20;96.90;;;;;;5063581;28;20186;-82
2023/10/04 04:30:18;;;;;;;1.77;1.67;;;18.30;96.80;;;;;;5039410;28;20644;-81
2023/10/04 04:32:47;;;;;;;1.60;1.50;;;18.20;96.70;;;;;;5066178;28;20163;-79
2023/10/04 04:35:22;;;;;;;1.57;1.47;;;18.20;96.80;;;;;;5069783;28;20182;-81
2023/10/04 04:37:53;;;;;;;2.33;1.33;;;18.20;97.10;;;;;;5054708;28;20160;-81
2023/10/04 04:40:24;;;;;;;6.93;2.00;;;18.10;96.80;;;;;;5053898;28;20227;-82
2023/10/04 04:42:50;;;;;;;2.23;2.03;;;18.10;97.00;;;;;;5067122;28;20168;-80
2023/10/04 04:45:17;;;;;;;1.93;1.83;;;18.10;96.90;;;;;;5063339;28;20214;-81
2023/10/04 04:47:44;;;;;;;1.73;1.63;;;18.00;97.10;;;;;;5054345;28;20195;-80
2023/10/04 04:50:12;;;;;;;2.17;1.53;;;18.00;97.60;;;;;;5055201;28;20168;-81
2023/10/04 04:52:37;;;;;;;2.07;1.60;;;18.00;97.20;;;;;;5038841;28;20180;-80
2023/10/04 04:55:04;;;;;;;2.70;1.67;;;17.90;97.20;;;;;;5063903;28;20631;-81
2023/10/04 04:57:34;;;;;;;3.93;1.70;;;17.80;97.50;;;;;;5060530;28;20631;-80
2023/10/04 05:00:07;;;;;;;2.60;1.87;;;17.80;97.20;;;;;;5053531;28;20725;-80
2023/10/04 05:02:33;;;;;;;2.13;1.70;;;17.90;97.40;;;;;;5052913;28;20248;-79
2023/10/04 05:05:00;;;;;;;2.07;1.77;;;17.80;97.40;;;;;;5052930;28;20211;-80
2023/10/04 05:07:27;;;;;;;1.87;1.77;;;17.80;97.60;;;;;;5053215;28;20179;-79
2023/10/04 05:09:54;;;;;;;1.53;1.43;;;17.70;97.40;;;;;;5053231;28;20164;-79
2023/10/04 05:12:19;;;;;;;1.90;1.70;;;17.70;97.60;;;;;;5034946;28;20180;-81
2023/10/04 05:14:45;;;;;;;1.50;1.40;;;17.80;97.10;;;;;;5035103;28;20233;-80
2023/10/04 05:17:11;;;;;;;4.33;1.73;;;17.80;97.00;;;;;;5052476;28;20225;-79
2023/10/04 05:19:37;;;;;;;1.60;1.50;;;17.80;97.00;;;;;;5052773;28;20195;-80
2023/10/04 05:22:05;;;;;;;1.93;1.40;;;17.80;97.00;;;;;;5052822;28;20294;-79
2023/10/04 05:24:31;;;;;;;1.87;1.50;;;17.80;97.20;;;;;;5053202;28;20176;-78
2023/10/04 05:26:57;;;;;;;2.23;1.70;;;17.80;97.20;;;;;;5053457;28;20167;-79
2023/10/04 05:29:23;;;;;;;2.07;1.80;;;17.70;97.20;;;;;;5053347;28;20233;-79
2023/10/04 05:31:48;;;;;;;2.50;1.63;;;17.70;97.60;;;;;;5052931;28;20235;-80
2023/10/04 05:34:14;;;;;;;2.10;1.80;;;17.70;97.70;;;;;;5053155;28;20164;-81
2023/10/04 05:36:40;;;;;;;2.67;1.90;;;17.70;97.60;;;;;;5053855;28;20187;-80
2023/10/04 05:39:08;;;;;;;1.70;1.60;;;17.70;97.60;;;;;;5056939;28;20208;-81
2023/10/04 05:41:35;;;;;;;1.70;1.43;;;17.60;97.60;;;;;;5059943;28;20186;-80
2023/10/04 05:44:01;;;;;;;1.70;1.57;;;17.70;97.60;;;;;;5060827;28;20182;-78
2023/10/04 05:46:28;;;;;;;2.83;1.60;;;17.70;97.90;;;;;;5057272;28;20509;-82
2023/10/04 05:48:53;;;;;;;1.80;1.50;;;17.70;97.40;;;;;;5059917;28;20172;-81
2023/10/04 05:51:24;;;;;;;1.67;1.57;;;17.70;97.40;;;;;;5063682;28;20226;-80
2023/10/04 05:53:51;;;;;;;1.53;1.43;;;17.70;97.70;;;;;;5057420;28;20160;-81
2023/10/04 05:56:19;;;;;;;1.50;1.40;;;17.80;97.70;;;;;;5056824;28;20221;-81
2023/10/04 05:58:46;;;;;;;1.43;1.37;;;17.80;97.30;;;;;;5057230;28;20672;-78
2023/10/04 06:01:17;;;;;;;2.00;1.90;;;17.80;97.30;;;;;;5057252;28;20172;-76
2023/10/04 06:03:44;;;;;;;2.00;1.80;;;17.90;97.40;;;;;;5055773;28;20151;-76
2023/10/04 06:06:10;;;;;;;1.67;1.53;;;17.90;97.50;;;;;;5055983;28;20187;-81
2023/10/04 06:08:36;;;;;;;1.80;1.70;;;17.90;97.50;;;;;;5056587;28;20266;-79
2023/10/04 06:11:02;;;;;;;1.40;1.30;;;17.90;97.30;;;;;;5056835;28;20247;-79
2023/10/04 06:13:28;;;;;;;2.47;1.73;;;17.90;97.40;;;;;;5060156;28;20623;-78
2023/10/04 06:15:57;;;;;;;2.13;1.40;;;17.90;97.60;;;;;;5065202;28;20243;-78
2023/10/04 06:18:28;;;;;;;2.30;1.63;;;17.90;97.80;;;;;;5064726;28;20599;-80
2023/10/04 06:20:55;;;;;;;2.23;1.67;;;17.80;97.90;;;;;;5056954;28;20251;-79
2023/10/04 06:23:22;;;;;;;1.90;1.80;;;17.70;98.20;;;;;;5064419;28;20225;-78
2023/10/04 06:25:52;;;;;;;2.77;1.60;;;17.70;98.30;;;;;;5069006;28;20172;-79
2023/10/04 06:28:19;;;;;;;1.60;1.50;;;17.70;98.40;;;;;;5058388;28;20167;-79
2023/10/04 06:30:48;;;;;;;2.70;1.73;;;17.70;98.30;;;;;;5058520;28;20531;-79
2023/10/04 06:33:15;;;;;;;2.97;1.60;;;17.70;98.40;;;;;;5058469;28;20543;-80
2023/10/04 06:35:43;;;;;;;2.00;1.90;;;17.70;98.50;;;;;;5059125;28;20198;-79
2023/10/04 06:38:10;;;;;;;3.10;1.80;;;17.70;98.60;;;;;;5038300;28;20184;-77
2023/10/04 06:40:37;;;;;;;2.03;1.83;;;17.70;99.20;;;;;;5056476;28;20208;-77
2023/10/04 06:43:04;;;;;;;5.73;2.03;;;17.80;98.70;;;;;;5056336;28;20245;-80
2023/10/04 06:45:31;;;;;;;1.73;1.60;;;17.80;98.80;;;;;;5055827;28;20172;-78
2023/10/04 06:47:58;;;;;;;1.83;1.73;;;17.80;98.60;;;;;;5055174;28;20611;-79
2023/10/04 06:50:32;;;;;;;1.83;1.73;;;17.80;98.60;;;;;;5057625;28;20176;-80
2023/10/04 06:52:59;;;;;;;3.93;1.70;;;17.90;98.40;;;;;;5059813;28;20168;-79
2023/10/04 06:55:26;;;;;;;2.20;2.00;;;18.00;98.20;;;;;;5059942;28;20684;-78
2023/10/04 06:57:53;;;;;;;2.03;1.80;;;18.00;98.30;;;;;;5059932;28;20215;-78
2023/10/04 07:00:21;;;;;;;2.03;1.90;;;18.10;98.20;;;;;;5059011;28;20214;-77
2023/10/04 07:02:54;;;;;;;3.27;2.90;;;18.20;97.80;;;;;;5039420;28;20188;-78
2023/10/04 07:05:23;;;;;;;1.40;1.40;;;18.30;98.10;;;;;;5056065;28;20177;-77
2023/10/04 07:07:54;;;;;;;1.90;1.80;;;18.40;97.80;;;;;;5056062;28;20217;-76
2023/10/04 07:10:21;;;;;;;1.77;1.50;;;18.50;97.60;;;;;;5059391;28;20159;-77
2023/10/04 07:12:51;;;;;;;1.97;1.80;;;18.60;97.10;;;;;;5060995;28;20226;-76
2023/10/04 07:15:18;;;;;;;3.97;2.00;;;18.70;97.10;;;;;;5055793;28;20164;-78
2023/10/04 07:17:45;;;;;;;4.37;1.90;;;18.90;96.90;;;;;;5055833;28;20259;-77
2023/10/04 07:20:15;;;;;;;2.10;1.73;;;19.00;96.60;;;;;;5059994;28;20283;-78
2023/10/04 07:22:51;;;;;;;1.60;1.50;;;19.10;96.90;;;;;;5055601;28;20191;-76
2023/10/04 07:25:17;;;;;;;4.67;2.13;;;19.20;97.70;;;;;;5036978;28;20167;-78
2023/10/04 07:27:46;;;;;;;2.37;2.13;;;19.20;98.50;;;;;;5054767;28;20175;-77
2023/10/04 07:30:14;;;;;;;5.50;1.87;;;19.10;99.00;;;;;;5054793;28;20194;-78
2023/10/04 07:32:44;;;;;;;2.73;2.33;;;19.50;99.60;;;;;;5054876;28;20527;-79
2023/10/04 07:35:16;;;;;;;4.63;2.30;;;19.00;99.60;;;;;;5054517;28;20620;-75
2023/10/04 07:37:45;;;;;;;2.00;1.90;;;19.00;99.60;;;;;;5054281;28;20156;-78
2023/10/04 07:40:14;;;;;;;2.00;1.90;;;18.90;99.90;;;;;;5054111;28;20210;-77
2023/10/04 07:42:41;;;;;;;5.43;2.10;;;18.90;99.90;;;;;;5054586;28;20168;-77
2023/10/04 07:45:09;;;;;;;3.10;2.23;;;19.00;99.90;;;;;;5038173;28;20184;-76
2023/10/04 07:47:37;;;;;;;5.67;2.03;;;19.10;99.90;;;;;;5055398;28;20183;-76
2023/10/04 07:50:09;;;;;;;2.40;2.20;;;19.20;99.90;;;;;;5054649;28;20167;-77
2023/10/04 07:52:37;;;;;;;3.97;2.17;;;19.30;99.90;;;;;;5054431;28;20175;-77
2023/10/04 07:55:05;;;;;;;5.17;2.00;;;19.40;99.90;;;;;;5054365;28;20175;-78
2023/10/04 07:57:32;;;;;;;4.43;2.00;;;19.40;99.90;;;;;;5056336;28;20237;-78
2023/10/04 07:59:57;;;;;;;3.47;2.00;;;19.50;99.90;;;;;;5062308;28;20199;-78
2023/10/04 08:02:23;;;;;;;2.20;1.80;;;19.50;99.90;;;;;;5063114;28;20195;-79
2023/10/04 08:04:50;;;;;;;3.07;2.10;;;19.60;99.90;;;;;;5049458;28;20184;-78
2023/10/04 08:07:18;;;;;;;1.90;1.73;;;19.70;99.90;;;;;;5056058;28;20172;-77
2023/10/04 08:09:44;;;;;;;2.40;2.20;;;19.70;99.90;;;;;;5055684;28;20636;-77
2023/10/04 08:12:10;;;;;;;2.67;2.43;;;19.60;99.90;;;;;;5054549;28;20168;-78
2023/10/04 08:14:36;;;;;;;2.70;2.50;;;19.80;99.90;;;;;;5053829;28;20176;-78
2023/10/04 08:17:02;;;;;;;3.77;2.60;;;19.70;99.90;;;;;;5053613;28;20179;-78
2023/10/04 08:19:28;;;;;;;3.70;3.10;;;19.80;99.90;;;;;;5054037;28;20231;-78
2023/10/04 08:21:54;;;;;;;3.43;3.13;;;19.80;99.90;;;;;;5053708;28;20317;-79
2023/10/04 08:24:20;;;;;;;4.63;3.80;;;21.20;99.90;;;;;;5053646;28;20176;-77
2023/10/04 08:26:48;;;;;;;4.33;3.83;;;19.80;99.90;;;;;;5053337;28;20226;-78
2023/10/04 08:29:14;;;;;;;7.00;4.50;;;19.90;99.90;;;;;;5053652;28;20254;-77
2023/10/04 08:31:40;;;;;;;5.30;4.20;;;20.00;99.90;;;;;;5053343;28;20172;-78
2023/10/04 08:34:06;;;;;;;4.57;4.17;;;20.10;99.90;;;;;;5057457;28;20620;-79
2023/10/04 08:36:35;;;;;;;5.30;4.70;;;20.20;99.90;;;;;;5053561;28;20227;-78
2023/10/04 08:39:09;;;;;;;5.03;4.60;;;20.20;99.90;;;;;;5053681;28;20242;-78
2023/10/04 08:41:35;;;;;;;8.60;4.57;;;20.20;99.90;;;;;;5055202;28;20162;-78
2023/10/04 08:44:01;;;;;;;5.67;4.60;;;20.20;99.90;;;;;;5056166;28;20266;-78
2023/10/04 08:46:27;;;;;;;5.70;4.60;;;20.30;99.90;;;;;;5055905;28;20172;-78
2023/10/04 08:48:54;;;;;;;4.87;4.40;;;20.40;99.90;;;;;;5053241;28;20196;-78
2023/10/04 08:51:42;;;;;;;6.43;4.47;;;20.40;99.90;;;;;;5053315;28;20168;-79
2023/10/04 08:54:13;;;;;;;4.73;4.33;;;20.50;99.90;;;;;;5053576;28;20252;-78
2023/10/04 08:57:05;;;;;;;5.83;4.20;;;20.50;99.90;;;;;;5054864;28;20172;-78
2023/10/04 08:59:33;;;;;;;5.07;3.80;;;20.50;99.90;;;;;;5055630;28;20207;-78
2023/10/04 09:02:07;;;;;;;6.33;4.20;;;20.60;99.90;;;;;;5039238;28;20180;-76
2023/10/04 09:04:34;;;;;;;4.73;4.17;;;20.70;99.90;;;;;;5054396;28;20163;-79
2023/10/04 09:07:02;;;;;;;4.80;4.33;;;20.90;99.90;;;;;;5057377;28;20167;-79
2023/10/04 09:09:32;;;;;;;5.40;4.10;;;20.90;99.90;;;;;;5057149;28;20198;-78
2023/10/04 09:11:58;;;;;;;5.03;4.53;;;20.90;99.90;;;;;;5054852;28;20160;-78
2023/10/04 09:14:25;;;;;;;6.23;4.43;;;20.80;99.90;;;;;;5056858;28;20237;-78
2023/10/04 09:17:17;;;;;;;6.80;4.60;;;20.90;99.90;;;;;;5056632;28;20170;-77
2023/10/04 09:19:45;;;;;;;4.97;4.40;;;20.80;99.90;;;;;;5057063;28;20321;-77
2023/10/04 09:22:11;;;;;;;4.53;4.13;;;20.90;99.90;;;;;;5056767;28;20227;-77
2023/10/04 09:24:54;;;;;;;4.33;3.90;;;20.90;99.90;;;;;;5057290;28;20178;-78
2023/10/04 09:27:21;;;;;;;4.47;4.07;;;20.80;99.90;;;;;;5056999;28;20190;-78
2023/10/04 09:29:53;;;;;;;7.13;4.50;;;20.70;99.90;;;;;;5039161;28;20199;-78
2023/10/04 09:32:43;;;;;;;5.57;4.60;;;20.80;99.90;;;;;;5057055;28;20160;-77
2023/10/04 09:35:10;;;;;;;5.60;4.10;;;20.70;99.90;;;;;;5056927;28;20194;-77
2023/10/04 09:37:37;;;;;;;7.43;4.63;;;20.60;99.90;;;;;;5058282;28;20226;-78
2023/10/04 09:40:08;;;;;;;5.63;4.40;;;20.70;99.90;;;;;;5061383;28;20682;-78
2023/10/04 09:42:53;;;;;;;5.30;4.80;;;20.70;99.90;;;;;;5071379;28;20170;-77
2023/10/04 09:45:26;;;;;;;4.83;4.30;;;20.70;99.90;;;;;;5069831;28;20182;-77
2023/10/04 09:47:55;;;;;;;6.40;4.50;;;20.60;99.90;;;;;;5058179;28;20202;-77
2023/10/04 09:50:23;;;;;;;5.73;4.67;;;20.50;99.90;;;;;;5056392;28;20167;-78
2023/10/04 09:52:52;;;;;;;5.60;4.20;;;20.40;99.90;;;;;;5056621;28;20192;-78
2023/10/04 09:55:22;;;;;;;4.80;3.97;;;20.50;99.90;;;;;;5056865;28;20180;-77
2023/10/04 09:57:49;;;;;;;8.67;3.73;;;20.50;99.90;;;;;;5057084;28;20172;-77
2023/10/04 10:00:18;;;;;;;4.17;3.77;;;20.50;99.90;;;;;;5038548;28;20687;-78
2023/10/04 10:02:51;;;;;;;4.57;3.70;;;20.60;99.90;;;;;;5057091;28;20175;-79
2023/10/04 10:05:27;;;;;;;7.27;4.17;;;20.50;99.90;;;;;;5063881;28;20187;-77
2023/10/04 10:07:54;;;;;;;4.50;3.53;;;20.60;99.90;;;;;;5062799;28;20171;-78
2023/10/04 10:10:21;;;;;;;3.70;3.40;;;20.70;99.90;;;;;;5061841;28;20539;-78
2023/10/04 10:12:51;;;;;;;4.53;4.13;;;20.80;99.90;;;;;;5061747;28;20172;-78
2023/10/04 10:15:21;;;;;;;5.07;3.67;;;20.70;99.90;;;;;;5058822;28;20172;-77
2023/10/04 10:17:48;;;;;;;6.93;4.07;;;20.50;99.90;;;;;;5059467;28;20160;-78
2023/10/04 10:20:15;;;;;;;4.37;3.57;;;20.30;99.90;;;;;;5056296;28;20264;-78
2023/10/04 10:23:00;;;;;;;6.23;3.93;;;20.30;99.90;;;;;;5056285;28;20192;-78
2023/10/04 10:25:32;;;;;;;3.90;3.60;;;20.10;99.90;;;;;;5057024;28;20164;-77
2023/10/04 10:28:02;;;;;;;7.20;4.57;;;20.20;99.90;;;;;;5055706;28;20222;-78
2023/10/04 10:30:30;;;;;;;3.50;3.20;;;20.20;99.90;;;;;;5055430;28;20168;-78
2023/10/04 10:32:59;;;;;;;4.27;3.40;;;20.20;99.90;;;;;;5059657;28;20171;-77
2023/10/04 10:35:59;;;;;;;3.73;3.50;;;20.40;99.90;;;;;;5057350;28;20179;-77
2023/10/04 10:38:28;;;;;;;4.23;3.83;;;20.50;99.90;;;;;;5037528;28;20204;-78
2023/10/04 10:40:54;;;;;;;4.07;3.57;;;20.50;99.90;;;;;;5055315;28;20188;-77
2023/10/04 10:43:20;;;;;;;6.37;3.40;;;20.60;99.90;;;;;;5058071;28;20180;-77
2023/10/04 10:45:46;;;;;;;4.10;3.70;;;20.60;99.90;;;;;;5059211;28;20285;-77
2023/10/04 10:48:12;;;;;;;3.60;3.30;;;20.60;99.90;;;;;;5057623;28;20176;-78
2023/10/04 10:50:41;;;;;;;4.17;2.93;;;20.70;99.90;;;;;;5055848;28;20182;-79
2023/10/04 10:53:12;;;;;;;3.53;3.00;;;20.60;99.90;;;;;;5055070;28;20794;-78
2023/10/04 10:55:41;;;;;;;3.40;3.10;;;20.80;99.90;;;;;;5037665;28;20175;-76
2023/10/04 10:58:11;;;;;;;3.40;3.10;;;21.00;99.90;;;;;;5056447;28;20172;-78
2023/10/04 11:00:37;;;;;;;4.83;3.30;;;21.20;99.90;;;;;;5056702;28;20233;-78
2023/10/04 11:03:11;;;;;;;2.60;2.50;;;21.50;99.90;;;;;;5061641;28;20171;-77
2023/10/04 11:05:37;;;;;;;3.17;2.80;;;21.60;99.90;;;;;;5043181;28;20504;-78
2023/10/04 11:08:08;;;;;;;4.43;2.90;;;21.60;99.90;;;;;;5056225;28;20258;-77
2023/10/04 11:10:36;;;;;;;3.00;2.80;;;21.60;99.90;;;;;;5055219;28;20217;-78
2023/10/04 11:13:08;;;;;;;3.53;3.03;;;21.60;99.90;;;;;;5055086;28;20271;-79
2023/10/04 11:15:36;;;;;;;3.50;3.17;;;21.40;99.90;;;;;;5056120;28;20163;-79
2023/10/04 11:18:02;;;;;;;3.07;2.50;;;21.30;99.90;;;;;;5040375;28;20187;-77
2023/10/04 11:20:31;;;;;;;3.17;2.87;;;20.80;99.90;;;;;;5058981;28;20211;-78
2023/10/04 11:22:57;;;;;;;3.40;2.87;;;20.70;99.90;;;;;;5072124;28;20651;-77
2023/10/04 11:25:26;;;;;;;4.70;3.20;;;20.60;99.90;;;;;;5058717;28;20313;-79
2023/10/04 11:27:53;;;;;;;4.07;2.97;;;20.50;99.90;;;;;;5067666;28;20178;-78
2023/10/04 11:30:22;;;;;;;3.67;3.33;;;20.30;99.90;;;;;;5038820;28;20215;-77
2023/10/04 11:32:48;;;;;;;3.10;2.80;;;20.10;99.90;;;;;;5055615;28;20239;-77
2023/10/04 11:35:21;;;;;;;3.50;3.20;;;20.00;99.90;;;;;;5053451;28;20183;-76
2023/10/04 11:37:50;;;;;;;5.20;3.00;;;20.00;99.90;;;;;;5054220;28;20697;-76
2023/10/04 11:40:19;;;;;;;3.50;3.20;;;19.80;99.90;;;;;;5054239;28;20672;-76
2023/10/04 11:42:46;;;;;;;4.97;3.10;;;19.80;99.90;;;;;;5054725;28;20175;-79
2023/10/04 11:45:20;;;;;;;4.07;3.17;;;19.80;99.90;;;;;;5061625;28;20799;-78
2023/10/04 11:48:08;;;;;;;3.17;2.87;;;19.60;99.90;;;;;;5059295;28;20178;-79
2023/10/04 11:50:56;;;;;;;3.17;2.97;;;19.50;99.90;;;;;;5036972;28;20202;-78
2023/10/04 11:53:42;;;;;;;6.33;3.07;;;19.20;99.90;;;;;;5054781;28;20164;-78
2023/10/04 11:56:10;;;;;;;4.43;3.07;;;19.20;99.90;;;;;;5036693;28;20713;-78
2023/10/04 11:58:44;;;;;;;3.33;3.10;;;19.10;99.90;;;;;;5055301;28;20167;-78
2023/10/04 12:01:22;;;;;;;3.37;3.07;;;19.10;99.90;;;;;;5054190;28;20189;-78
2023/10/04 12:03:50;;;;;;;6.57;2.90;;;19.00;99.90;;;;;;5058976;28;20162;-78
2023/10/04 12:06:26;;;;;;;3.73;2.97;;;19.00;99.90;;;;;;5067939;28;20673;-78
2023/10/04 12:08:57;;;;;;;7.37;3.13;;;18.90;99.90;;;;;;5046297;28;20171;-78
2023/10/04 12:11:25;;;;;;;6.27;3.57;;;18.90;99.90;;;;;;5038286;28;20172;-77
2023/10/04 12:13:51;;;;;;;3.50;2.90;;;18.90;99.90;;;;;;5054381;28;21123;-77
2023/10/04 12:16:18;;;;;;;4.30;3.07;;;18.80;99.90;;;;;;5053765;28;20175;-77
2023/10/04 12:18:45;;;;;;;3.03;2.73;;;18.60;99.90;;;;;;5053374;28;20198;-77
2023/10/04 12:21:12;;;;;;;2.93;2.73;;;18.40;99.90;;;;;;5053370;28;20378;-78
2023/10/04 12:23:38;;;;;;;5.80;2.87;;;18.40;99.90;;;;;;5035439;28;20214;-79
2023/10/04 12:26:04;;;;;;;4.37;2.90;;;18.30;99.90;;;;;;5053765;28;20242;-77
2023/10/04 12:28:30;;;;;;;4.53;3.00;;;18.30;99.90;;;;;;5054367;28;20250;-76
2023/10/04 12:31:03;;;;;;;4.37;2.80;;;18.00;99.90;;;;;;5054132;28;20271;-78
2023/10/04 12:33:34;;;;;;;3.87;3.13;;;17.90;99.90;;;;;;5053781;28;20180;-79
2023/10/04 12:36:01;;;;;;;4.63;3.13;;;17.80;99.90;;;;;;5053435;28;20216;-78
2023/10/04 12:38:26;;;;;;;5.00;2.87;;;17.80;99.90;;;;;;5053438;28;20225;-76
2023/10/04 12:40:52;;;;;;;4.93;3.17;;;17.60;99.90;;;;;;5056085;28;20571;-77
2023/10/04 12:43:18;;;;;;;5.03;2.80;;;17.70;99.90;;;;;;5053490;28;20251;-78
2023/10/04 12:45:44;;;;;;;3.23;2.80;;;17.80;99.90;;;;;;5056096;28;20527;-76
2023/10/04 12:48:16;;;;;;;5.43;3.53;;;17.80;99.90;;;;;;5055780;28;20172;-78
2023/10/04 12:50:47;;;;;;;7.23;3.70;;;17.70;99.90;;;;;;5055120;28;20694;-77
2023/10/04 12:53:14;;;;;;;3.20;3.00;;;17.60;99.90;;;;;;5053223;28;20199;-79
2023/10/04 12:55:52;;;;;;;6.20;2.93;;;17.40;99.90;;;;;;5053357;28;20176;-79